sensor_id;sensor_type;location;lat;lon;timestamp;P1;durP1;ratioP1;P2;durP2;ratioP2
12776;SDS011;6452;41.572;23.732;2023-03-20T00:02:24;4.30;;;3.90;;
12776;SDS011;6452;41.572;23.732;2023-03-20T00:04:51;7.80;;;5.35;;
12776;SDS011;6452;41.572;23.732;2023-03-20T00:07:17;9.05;;;6.05;;
12776;SDS011;6452;41.572;23.732;2023-03-20T00:09:43;7.65;;;6.40;;
12776;SDS011;6452;41.572;23.732;2023-03-20T00:12:13;8.55;;;6.70;;
12776;SDS011;6452;41.572;23.732;2023-03-20T00:14:40;5.65;;;5.07;;
12776;SDS011;6452;41.572;23.732;2023-03-20T00:17:09;6.05;;;5.15;;
12776;SDS011;6452;41.572;23.732;2023-03-20T00:19:36;6.00;;;5.18;;
12776;SDS011;6452;41.572;23.732;2023-03-20T00:22:02;7.25;;;5.88;;
12776;SDS011;6452;41.572;23.732;2023-03-20T00:24:29;7.05;;;5.88;;
12776;SDS011;6452;41.572;23.732;2023-03-20T00:26:56;6.65;;;5.38;;
12776;SDS011;6452;41.572;23.732;2023-03-20T00:29:23;8.68;;;5.60;;
12776;SDS011;6452;41.572;23.732;2023-03-20T00:31:50;8.10;;;6.18;;
12776;SDS011;6452;41.572;23.732;2023-03-20T00:34:18;6.45;;;5.10;;
12776;SDS011;6452;41.572;23.732;2023-03-20T00:36:44;11.27;;;5.82;;
12776;SDS011;6452;41.572;23.732;2023-03-20T00:39:10;4.70;;;4.30;;
12776;SDS011;6452;41.572;23.732;2023-03-20T00:44:46;6.70;;;4.88;;
12776;SDS011;6452;41.572;23.732;2023-03-20T00:49:50;5.38;;;4.45;;
12776;SDS011;6452;41.572;23.732;2023-03-20T00:52:17;4.97;;;4.22;;
12776;SDS011;6452;41.572;23.732;2023-03-20T00:54:43;5.00;;;4.50;;
12776;SDS011;6452;41.572;23.732;2023-03-20T01:02:26;3.72;;;3.42;;
12776;SDS011;6452;41.572;23.732;2023-03-20T01:04:53;3.47;;;3.17;;
12776;SDS011;6452;41.572;23.732;2023-03-20T01:07:19;5.22;;;4.35;;
12776;SDS011;6452;41.572;23.732;2023-03-20T01:09:46;3.95;;;3.53;;
12776;SDS011;6452;41.572;23.732;2023-03-20T01:12:12;3.85;;;3.55;;
12776;SDS011;6452;41.572;23.732;2023-03-20T01:14:39;4.40;;;4.00;;
12776;SDS011;6452;41.572;23.732;2023-03-20T01:17:05;5.13;;;3.97;;
12776;SDS011;6452;41.572;23.732;2023-03-20T01:19:31;5.05;;;4.55;;
12776;SDS011;6452;41.572;23.732;2023-03-20T01:21:57;5.93;;;4.32;;
12776;SDS011;6452;41.572;23.732;2023-03-20T01:24:23;5.50;;;4.60;;
12776;SDS011;6452;41.572;23.732;2023-03-20T01:26:49;5.57;;;4.45;;
12776;SDS011;6452;41.572;23.732;2023-03-20T01:29:18;4.00;;;3.60;;
12776;SDS011;6452;41.572;23.732;2023-03-20T01:31:44;4.35;;;3.83;;
12776;SDS011;6452;41.572;23.732;2023-03-20T01:34:10;4.35;;;3.88;;
12776;SDS011;6452;41.572;23.732;2023-03-20T01:36:37;4.32;;;3.92;;
12776;SDS011;6452;41.572;23.732;2023-03-20T01:39:03;4.22;;;3.83;;
12776;SDS011;6452;41.572;23.732;2023-03-20T01:41:29;4.65;;;3.70;;
12776;SDS011;6452;41.572;23.732;2023-03-20T01:43:57;4.03;;;3.70;;
12776;SDS011;6452;41.572;23.732;2023-03-20T01:46:25;4.55;;;4.15;;
12776;SDS011;6452;41.572;23.732;2023-03-20T01:51:20;5.55;;;4.93;;
12776;SDS011;6452;41.572;23.732;2023-03-20T01:53:48;6.13;;;4.78;;
12776;SDS011;6452;41.572;23.732;2023-03-20T01:56:14;7.20;;;5.03;;
12776;SDS011;6452;41.572;23.732;2023-03-20T01:58:43;7.03;;;5.80;;
12776;SDS011;6452;41.572;23.732;2023-03-20T02:01:11;6.03;;;5.43;;
12776;SDS011;6452;41.572;23.732;2023-03-20T02:03:38;5.68;;;5.15;;
12776;SDS011;6452;41.572;23.732;2023-03-20T02:06:04;7.63;;;6.13;;
12776;SDS011;6452;41.572;23.732;2023-03-20T02:08:32;6.72;;;5.22;;
12776;SDS011;6452;41.572;23.732;2023-03-20T02:11:01;5.47;;;4.97;;
12776;SDS011;6452;41.572;23.732;2023-03-20T02:13:29;7.30;;;5.72;;
12776;SDS011;6452;41.572;23.732;2023-03-20T02:16:04;11.70;;;6.47;;
12776;SDS011;6452;41.572;23.732;2023-03-20T02:18:30;8.93;;;6.20;;
12776;SDS011;6452;41.572;23.732;2023-03-20T02:41:38;4.90;;;4.38;;
12776;SDS011;6452;41.572;23.732;2023-03-20T02:44:13;5.75;;;4.95;;
12776;SDS011;6452;41.572;23.732;2023-03-20T02:49:12;6.93;;;4.78;;
12776;SDS011;6452;41.572;23.732;2023-03-20T02:57:11;6.30;;;5.00;;
12776;SDS011;6452;41.572;23.732;2023-03-20T02:59:42;7.88;;;5.53;;
12776;SDS011;6452;41.572;23.732;2023-03-20T03:02:17;6.32;;;5.20;;
12776;SDS011;6452;41.572;23.732;2023-03-20T03:04:51;5.80;;;4.97;;
12776;SDS011;6452;41.572;23.732;2023-03-20T03:07:19;5.85;;;5.20;;
12776;SDS011;6452;41.572;23.732;2023-03-20T03:09:54;7.20;;;5.75;;
12776;SDS011;6452;41.572;23.732;2023-03-20T03:12:23;8.52;;;6.80;;
12776;SDS011;6452;41.572;23.732;2023-03-20T03:14:52;11.45;;;7.22;;
12776;SDS011;6452;41.572;23.732;2023-03-20T03:17:19;8.00;;;6.78;;
12776;SDS011;6452;41.572;23.732;2023-03-20T03:19:47;11.20;;;7.72;;
12776;SDS011;6452;41.572;23.732;2023-03-20T03:22:15;11.27;;;7.57;;
12776;SDS011;6452;41.572;23.732;2023-03-20T03:24:45;10.55;;;7.65;;
12776;SDS011;6452;41.572;23.732;2023-03-20T03:27:58;11.70;;;7.65;;
12776;SDS011;6452;41.572;23.732;2023-03-20T03:29:59;13.68;;;8.13;;
12776;SDS011;6452;41.572;23.732;2023-03-20T03:32:28;11.55;;;8.23;;
12776;SDS011;6452;41.572;23.732;2023-03-20T03:34:55;10.88;;;7.85;;
12776;SDS011;6452;41.572;23.732;2023-03-20T03:37:35;9.70;;;7.60;;
12776;SDS011;6452;41.572;23.732;2023-03-20T03:42:32;8.35;;;6.05;;
12776;SDS011;6452;41.572;23.732;2023-03-20T03:45:17;10.40;;;7.15;;
12776;SDS011;6452;41.572;23.732;2023-03-20T03:47:49;12.75;;;7.75;;
12776;SDS011;6452;41.572;23.732;2023-03-20T03:50:22;8.60;;;7.35;;
12776;SDS011;6452;41.572;23.732;2023-03-20T03:52:52;8.75;;;6.88;;
12776;SDS011;6452;41.572;23.732;2023-03-20T03:55:20;8.40;;;6.82;;
12776;SDS011;6452;41.572;23.732;2023-03-20T03:57:49;9.95;;;7.53;;
12776;SDS011;6452;41.572;23.732;2023-03-20T04:00:18;12.25;;;7.72;;
12776;SDS011;6452;41.572;23.732;2023-03-20T04:02:47;10.23;;;7.72;;
12776;SDS011;6452;41.572;23.732;2023-03-20T04:05:14;10.27;;;7.50;;
12776;SDS011;6452;41.572;23.732;2023-03-20T04:07:44;12.98;;;7.93;;
12776;SDS011;6452;41.572;23.732;2023-03-20T04:10:10;11.68;;;8.80;;
12776;SDS011;6452;41.572;23.732;2023-03-20T04:12:37;14.23;;;7.63;;
12776;SDS011;6452;41.572;23.732;2023-03-20T04:15:06;12.55;;;8.60;;
12776;SDS011;6452;41.572;23.732;2023-03-20T04:17:33;9.98;;;8.20;;
12776;SDS011;6452;41.572;23.732;2023-03-20T04:19:59;9.23;;;7.55;;
12776;SDS011;6452;41.572;23.732;2023-03-20T04:22:24;14.65;;;8.05;;
12776;SDS011;6452;41.572;23.732;2023-03-20T04:24:50;9.10;;;7.10;;
12776;SDS011;6452;41.572;23.732;2023-03-20T04:27:17;12.95;;;7.63;;
12776;SDS011;6452;41.572;23.732;2023-03-20T04:29:47;10.23;;;7.05;;
12776;SDS011;6452;41.572;23.732;2023-03-20T04:32:14;13.23;;;8.93;;
12776;SDS011;6452;41.572;23.732;2023-03-20T04:34:40;19.73;;;8.45;;
12776;SDS011;6452;41.572;23.732;2023-03-20T04:37:06;21.52;;;11.85;;
12776;SDS011;6452;41.572;23.732;2023-03-20T04:39:33;19.13;;;13.60;;
12776;SDS011;6452;41.572;23.732;2023-03-20T04:42:00;35.38;;;22.70;;
12776;SDS011;6452;41.572;23.732;2023-03-20T04:44:26;26.42;;;18.48;;
12776;SDS011;6452;41.572;23.732;2023-03-20T04:46:52;21.70;;;14.75;;
12776;SDS011;6452;41.572;23.732;2023-03-20T04:49:18;21.67;;;14.20;;
12776;SDS011;6452;41.572;23.732;2023-03-20T04:51:44;20.95;;;15.00;;
12776;SDS011;6452;41.572;23.732;2023-03-20T04:54:10;27.40;;;15.60;;
12776;SDS011;6452;41.572;23.732;2023-03-20T04:56:36;24.13;;;13.45;;
12776;SDS011;6452;41.572;23.732;2023-03-20T04:59:02;21.88;;;14.65;;
12776;SDS011;6452;41.572;23.732;2023-03-20T05:01:28;17.27;;;11.38;;
12776;SDS011;6452;41.572;23.732;2023-03-20T05:03:54;25.02;;;11.85;;
12776;SDS011;6452;41.572;23.732;2023-03-20T05:06:25;25.90;;;14.27;;
12776;SDS011;6452;41.572;23.732;2023-03-20T05:08:52;26.08;;;16.70;;
12776;SDS011;6452;41.572;23.732;2023-03-20T05:11:18;25.48;;;16.55;;
12776;SDS011;6452;41.572;23.732;2023-03-20T05:13:44;27.63;;;18.25;;
12776;SDS011;6452;41.572;23.732;2023-03-20T05:16:10;27.30;;;18.88;;
12776;SDS011;6452;41.572;23.732;2023-03-20T05:18:36;30.92;;;18.13;;
12776;SDS011;6452;41.572;23.732;2023-03-20T05:21:02;13.52;;;11.07;;
12776;SDS011;6452;41.572;23.732;2023-03-20T05:23:28;16.85;;;10.30;;
12776;SDS011;6452;41.572;23.732;2023-03-20T05:25:55;10.68;;;8.70;;
12776;SDS011;6452;41.572;23.732;2023-03-20T05:28:21;11.70;;;8.75;;
12776;SDS011;6452;41.572;23.732;2023-03-20T05:30:47;15.73;;;10.00;;
12776;SDS011;6452;41.572;23.732;2023-03-20T05:33:13;8.00;;;7.20;;
12776;SDS011;6452;41.572;23.732;2023-03-20T05:35:39;9.50;;;8.30;;
12776;SDS011;6452;41.572;23.732;2023-03-20T05:38:05;8.95;;;8.05;;
12776;SDS011;6452;41.572;23.732;2023-03-20T05:40:32;11.55;;;8.70;;
12776;SDS011;6452;41.572;23.732;2023-03-20T05:42:57;12.60;;;9.75;;
12776;SDS011;6452;41.572;23.732;2023-03-20T05:45:23;11.60;;;9.65;;
12776;SDS011;6452;41.572;23.732;2023-03-20T05:47:49;12.95;;;11.02;;
12776;SDS011;6452;41.572;23.732;2023-03-20T05:50:15;13.60;;;11.23;;
12776;SDS011;6452;41.572;23.732;2023-03-20T05:52:42;18.23;;;13.15;;
12776;SDS011;6452;41.572;23.732;2023-03-20T05:55:10;18.17;;;12.93;;
12776;SDS011;6452;41.572;23.732;2023-03-20T05:57:37;22.52;;;13.65;;
12776;SDS011;6452;41.572;23.732;2023-03-20T06:00:03;21.85;;;14.90;;
12776;SDS011;6452;41.572;23.732;2023-03-20T06:02:31;20.95;;;15.48;;
12776;SDS011;6452;41.572;23.732;2023-03-20T06:04:57;24.30;;;17.85;;
12776;SDS011;6452;41.572;23.732;2023-03-20T06:07:23;30.13;;;21.20;;
12776;SDS011;6452;41.572;23.732;2023-03-20T06:09:49;26.63;;;19.58;;
12776;SDS011;6452;41.572;23.732;2023-03-20T06:12:16;25.40;;;18.35;;
12776;SDS011;6452;41.572;23.732;2023-03-20T06:14:42;22.58;;;17.58;;
12776;SDS011;6452;41.572;23.732;2023-03-20T06:17:08;20.85;;;15.88;;
12776;SDS011;6452;41.572;23.732;2023-03-20T06:19:35;16.40;;;13.27;;
12776;SDS011;6452;41.572;23.732;2023-03-20T06:22:01;18.30;;;14.05;;
12776;SDS011;6452;41.572;23.732;2023-03-20T06:24:27;17.67;;;13.60;;
12776;SDS011;6452;41.572;23.732;2023-03-20T06:26:53;18.48;;;12.25;;
12776;SDS011;6452;41.572;23.732;2023-03-20T06:29:23;18.50;;;12.82;;
12776;SDS011;6452;41.572;23.732;2023-03-20T06:31:49;12.43;;;10.32;;
12776;SDS011;6452;41.572;23.732;2023-03-20T06:34:17;17.88;;;10.55;;
12776;SDS011;6452;41.572;23.732;2023-03-20T06:36:45;15.55;;;11.85;;
12776;SDS011;6452;41.572;23.732;2023-03-20T06:39:13;15.80;;;11.00;;
12776;SDS011;6452;41.572;23.732;2023-03-20T06:41:38;17.65;;;12.13;;
12776;SDS011;6452;41.572;23.732;2023-03-20T06:44:05;14.85;;;11.30;;
12776;SDS011;6452;41.572;23.732;2023-03-20T06:46:31;14.27;;;11.35;;
12776;SDS011;6452;41.572;23.732;2023-03-20T06:48:57;15.20;;;12.13;;
12776;SDS011;6452;41.572;23.732;2023-03-20T06:51:23;13.52;;;11.05;;
12776;SDS011;6452;41.572;23.732;2023-03-20T06:53:50;14.18;;;10.43;;
12776;SDS011;6452;41.572;23.732;2023-03-20T06:56:15;10.15;;;8.55;;
12776;SDS011;6452;41.572;23.732;2023-03-20T06:58:42;10.35;;;9.25;;
12776;SDS011;6452;41.572;23.732;2023-03-20T07:01:11;13.45;;;8.77;;
12776;SDS011;6452;41.572;23.732;2023-03-20T07:03:53;13.10;;;9.50;;
12776;SDS011;6452;41.572;23.732;2023-03-20T07:06:20;13.73;;;10.25;;
12776;SDS011;6452;41.572;23.732;2023-03-20T07:08:47;11.75;;;9.23;;
12776;SDS011;6452;41.572;23.732;2023-03-20T07:11:13;11.65;;;9.38;;
12776;SDS011;6452;41.572;23.732;2023-03-20T07:13:44;9.90;;;7.70;;
12776;SDS011;6452;41.572;23.732;2023-03-20T07:16:09;7.95;;;6.45;;
12776;SDS011;6452;41.572;23.732;2023-03-20T07:18:36;7.65;;;5.72;;
12776;SDS011;6452;41.572;23.732;2023-03-20T07:21:03;6.72;;;5.97;;
12776;SDS011;6452;41.572;23.732;2023-03-20T07:23:29;7.85;;;7.05;;
12776;SDS011;6452;41.572;23.732;2023-03-20T07:25:56;7.03;;;5.72;;
12776;SDS011;6452;41.572;23.732;2023-03-20T07:28:22;7.00;;;5.78;;
12776;SDS011;6452;41.572;23.732;2023-03-20T07:30:48;8.07;;;6.13;;
12776;SDS011;6452;41.572;23.732;2023-03-20T07:33:14;6.68;;;6.03;;
12776;SDS011;6452;41.572;23.732;2023-03-20T07:35:40;8.93;;;6.03;;
12776;SDS011;6452;41.572;23.732;2023-03-20T07:38:06;8.07;;;6.00;;
12776;SDS011;6452;41.572;23.732;2023-03-20T07:40:32;7.88;;;7.07;;
12776;SDS011;6452;41.572;23.732;2023-03-20T07:42:58;8.95;;;6.65;;
12776;SDS011;6452;41.572;23.732;2023-03-20T07:45:24;10.77;;;8.63;;
12776;SDS011;6452;41.572;23.732;2023-03-20T07:47:50;10.77;;;9.50;;
12776;SDS011;6452;41.572;23.732;2023-03-20T07:50:16;11.38;;;8.88;;
12776;SDS011;6452;41.572;23.732;2023-03-20T07:52:49;13.73;;;9.18;;
12776;SDS011;6452;41.572;23.732;2023-03-20T07:55:15;14.93;;;10.40;;
12776;SDS011;6452;41.572;23.732;2023-03-20T07:57:42;11.43;;;10.07;;
12776;SDS011;6452;41.572;23.732;2023-03-20T08:00:08;11.55;;;10.18;;
12776;SDS011;6452;41.572;23.732;2023-03-20T08:02:34;9.90;;;8.90;;
12776;SDS011;6452;41.572;23.732;2023-03-20T08:05:00;7.82;;;6.95;;
12776;SDS011;6452;41.572;23.732;2023-03-20T08:07:26;7.70;;;7.00;;
12776;SDS011;6452;41.572;23.732;2023-03-20T08:09:54;8.80;;;7.60;;
12776;SDS011;6452;41.572;23.732;2023-03-20T08:12:20;8.00;;;7.13;;
12776;SDS011;6452;41.572;23.732;2023-03-20T08:14:46;6.57;;;5.97;;
12776;SDS011;6452;41.572;23.732;2023-03-20T08:17:12;5.97;;;5.15;;
12776;SDS011;6452;41.572;23.732;2023-03-20T08:19:38;8.70;;;5.47;;
12776;SDS011;6452;41.572;23.732;2023-03-20T08:22:04;6.30;;;5.60;;
12776;SDS011;6452;41.572;23.732;2023-03-20T08:24:31;8.40;;;4.93;;
12776;SDS011;6452;41.572;23.732;2023-03-20T08:26:57;6.53;;;4.72;;
12776;SDS011;6452;41.572;23.732;2023-03-20T08:29:24;4.93;;;4.53;;
12776;SDS011;6452;41.572;23.732;2023-03-20T08:31:50;4.45;;;4.05;;
12776;SDS011;6452;41.572;23.732;2023-03-20T08:34:16;4.53;;;4.13;;
12776;SDS011;6452;41.572;23.732;2023-03-20T08:36:42;4.50;;;4.03;;
12776;SDS011;6452;41.572;23.732;2023-03-20T08:39:08;4.32;;;4.03;;
12776;SDS011;6452;41.572;23.732;2023-03-20T08:41:35;4.95;;;4.43;;
12776;SDS011;6452;41.572;23.732;2023-03-20T08:44:08;6.72;;;4.55;;
12776;SDS011;6452;41.572;23.732;2023-03-20T08:46:33;72.72;;;7.72;;
12776;SDS011;6452;41.572;23.732;2023-03-20T08:48:59;7.75;;;4.78;;
12776;SDS011;6452;41.572;23.732;2023-03-20T08:51:25;7.13;;;4.60;;
12776;SDS011;6452;41.572;23.732;2023-03-20T08:53:52;4.78;;;4.38;;
12776;SDS011;6452;41.572;23.732;2023-03-20T08:56:18;5.05;;;4.57;;
12776;SDS011;6452;41.572;23.732;2023-03-20T08:58:44;6.65;;;4.60;;
12776;SDS011;6452;41.572;23.732;2023-03-20T09:01:10;4.90;;;4.43;;
12776;SDS011;6452;41.572;23.732;2023-03-20T09:03:36;4.93;;;4.53;;
12776;SDS011;6452;41.572;23.732;2023-03-20T09:06:05;4.93;;;4.45;;
12776;SDS011;6452;41.572;23.732;2023-03-20T09:08:33;5.45;;;4.72;;
12776;SDS011;6452;41.572;23.732;2023-03-20T09:10:59;4.70;;;4.22;;
12776;SDS011;6452;41.572;23.732;2023-03-20T09:13:25;6.93;;;4.38;;
12776;SDS011;6452;41.572;23.732;2023-03-20T09:15:51;6.65;;;4.63;;
12776;SDS011;6452;41.572;23.732;2023-03-20T09:18:18;7.65;;;4.20;;
12776;SDS011;6452;41.572;23.732;2023-03-20T09:20:44;5.10;;;4.70;;
12776;SDS011;6452;41.572;23.732;2023-03-20T09:23:09;5.72;;;4.85;;
12776;SDS011;6452;41.572;23.732;2023-03-20T09:25:36;4.95;;;4.53;;
12776;SDS011;6452;41.572;23.732;2023-03-20T09:28:02;4.68;;;4.30;;
12776;SDS011;6452;41.572;23.732;2023-03-20T09:30:27;5.90;;;4.75;;
12776;SDS011;6452;41.572;23.732;2023-03-20T09:32:54;6.65;;;4.00;;
12776;SDS011;6452;41.572;23.732;2023-03-20T09:35:20;5.80;;;4.13;;
12776;SDS011;6452;41.572;23.732;2023-03-20T09:37:46;5.32;;;3.85;;
12776;SDS011;6452;41.572;23.732;2023-03-20T09:40:23;4.32;;;3.92;;
12776;SDS011;6452;41.572;23.732;2023-03-20T09:42:58;3.80;;;3.50;;
12776;SDS011;6452;41.572;23.732;2023-03-20T09:45:42;3.60;;;3.40;;
12776;SDS011;6452;41.572;23.732;2023-03-20T09:48:24;4.18;;;3.85;;
12776;SDS011;6452;41.572;23.732;2023-03-20T09:50:54;4.82;;;3.22;;
12776;SDS011;6452;41.572;23.732;2023-03-20T09:55:48;3.35;;;3.15;;
12776;SDS011;6452;41.572;23.732;2023-03-20T09:58:23;3.20;;;3.00;;
12776;SDS011;6452;41.572;23.732;2023-03-20T10:00:49;3.30;;;3.10;;
12776;SDS011;6452;41.572;23.732;2023-03-20T10:03:20;3.50;;;3.20;;
12776;SDS011;6452;41.572;23.732;2023-03-20T10:05:57;2.80;;;2.60;;
12776;SDS011;6452;41.572;23.732;2023-03-20T10:08:34;2.80;;;2.70;;
12776;SDS011;6452;41.572;23.732;2023-03-20T10:11:03;4.00;;;3.70;;
12776;SDS011;6452;41.572;23.732;2023-03-20T10:18:33;4.90;;;4.40;;
12776;SDS011;6452;41.572;23.732;2023-03-20T10:21:04;4.93;;;4.18;;
12776;SDS011;6452;41.572;23.732;2023-03-20T10:26:13;4.75;;;4.32;;
12776;SDS011;6452;41.572;23.732;2023-03-20T10:29:18;3.78;;;3.45;;
12776;SDS011;6452;41.572;23.732;2023-03-20T10:31:43;3.15;;;2.83;;
12776;SDS011;6452;41.572;23.732;2023-03-20T10:36:45;3.30;;;3.05;;
12776;SDS011;6452;41.572;23.732;2023-03-20T10:41:55;3.55;;;2.55;;
12776;SDS011;6452;41.572;23.732;2023-03-20T10:44:36;2.40;;;2.30;;
12776;SDS011;6452;41.572;23.732;2023-03-20T10:47:17;2.97;;;2.42;;
12776;SDS011;6452;41.572;23.732;2023-03-20T10:49:46;2.60;;;2.40;;
12776;SDS011;6452;41.572;23.732;2023-03-20T10:52:17;2.58;;;2.05;;
12776;SDS011;6452;41.572;23.732;2023-03-20T10:54:45;2.88;;;2.55;;
12776;SDS011;6452;41.572;23.732;2023-03-20T10:57:25;2.05;;;1.95;;
12776;SDS011;6452;41.572;23.732;2023-03-20T10:59:56;2.22;;;2.13;;
12776;SDS011;6452;41.572;23.732;2023-03-20T11:02:24;2.28;;;2.03;;
12776;SDS011;6452;41.572;23.732;2023-03-20T11:04:50;2.08;;;1.98;;
12776;SDS011;6452;41.572;23.732;2023-03-20T11:09:45;2.80;;;2.60;;
12776;SDS011;6452;41.572;23.732;2023-03-20T11:12:21;2.10;;;2.00;;
12776;SDS011;6452;41.572;23.732;2023-03-20T11:14:47;2.38;;;2.03;;
12776;SDS011;6452;41.572;23.732;2023-03-20T11:17:13;2.13;;;2.10;;
12776;SDS011;6452;41.572;23.732;2023-03-20T11:19:41;2.28;;;2.17;;
12776;SDS011;6452;41.572;23.732;2023-03-20T11:22:28;2.17;;;2.08;;
12776;SDS011;6452;41.572;23.732;2023-03-20T11:24:55;3.28;;;2.40;;
12776;SDS011;6452;41.572;23.732;2023-03-20T11:27:24;2.25;;;2.00;;
12776;SDS011;6452;41.572;23.732;2023-03-20T11:29:51;2.10;;;2.00;;
12776;SDS011;6452;41.572;23.732;2023-03-20T11:34:52;2.60;;;2.50;;
12776;SDS011;6452;41.572;23.732;2023-03-20T11:37:26;2.72;;;2.40;;
12776;SDS011;6452;41.572;23.732;2023-03-20T11:40:09;2.17;;;2.08;;
12776;SDS011;6452;41.572;23.732;2023-03-20T11:42:38;2.40;;;2.30;;
12776;SDS011;6452;41.572;23.732;2023-03-20T11:45:12;2.45;;;2.35;;
12776;SDS011;6452;41.572;23.732;2023-03-20T11:47:40;2.25;;;2.17;;
12776;SDS011;6452;41.572;23.732;2023-03-20T11:50:12;2.58;;;2.45;;
12776;SDS011;6452;41.572;23.732;2023-03-20T11:52:50;2.40;;;2.30;;
12776;SDS011;6452;41.572;23.732;2023-03-20T11:55:26;2.30;;;2.20;;
12776;SDS011;6452;41.572;23.732;2023-03-20T11:57:56;2.22;;;2.13;;
12776;SDS011;6452;41.572;23.732;2023-03-20T12:00:24;2.28;;;2.17;;
12776;SDS011;6452;41.572;23.732;2023-03-20T12:02:50;2.45;;;2.35;;
12776;SDS011;6452;41.572;23.732;2023-03-20T12:07:45;2.13;;;2.00;;
12776;SDS011;6452;41.572;23.732;2023-03-20T12:10:13;2.30;;;2.10;;
12776;SDS011;6452;41.572;23.732;2023-03-20T12:12:49;1.90;;;1.80;;
12776;SDS011;6452;41.572;23.732;2023-03-20T12:15:17;2.78;;;1.92;;
12776;SDS011;6452;41.572;23.732;2023-03-20T12:25:35;4.22;;;1.92;;
12776;SDS011;6452;41.572;23.732;2023-03-20T12:28:04;2.60;;;2.50;;
12776;SDS011;6452;41.572;23.732;2023-03-20T12:33:10;7.40;;;6.70;;
12776;SDS011;6452;41.572;23.732;2023-03-20T12:35:40;5.20;;;4.70;;
12776;SDS011;6452;41.572;23.732;2023-03-20T12:40:50;5.75;;;5.35;;
12776;SDS011;6452;41.572;23.732;2023-03-20T12:43:20;4.63;;;4.22;;
12776;SDS011;6452;41.572;23.732;2023-03-20T12:50:49;3.78;;;3.28;;
12776;SDS011;6452;41.572;23.732;2023-03-20T12:56:04;3.50;;;3.30;;
12776;SDS011;6452;41.572;23.732;2023-03-20T12:58:56;4.50;;;3.63;;
12776;SDS011;6452;41.572;23.732;2023-03-20T13:14:09;2.50;;;2.40;;
12776;SDS011;6452;41.572;23.732;2023-03-20T13:16:45;2.85;;;2.65;;
12776;SDS011;6452;41.572;23.732;2023-03-20T13:24:31;2.90;;;2.70;;
12776;SDS011;6452;41.572;23.732;2023-03-20T13:27:03;2.35;;;2.25;;
12776;SDS011;6452;41.572;23.732;2023-03-20T13:29:58;2.30;;;2.17;;
12776;SDS011;6452;41.572;23.732;2023-03-20T13:37:33;3.25;;;2.00;;
12776;SDS011;6452;41.572;23.732;2023-03-20T13:42:33;4.05;;;1.83;;
12776;SDS011;6452;41.572;23.732;2023-03-20T13:45:06;1.83;;;1.65;;
12776;SDS011;6452;41.572;23.732;2023-03-20T13:47:47;1.90;;;1.80;;
12776;SDS011;6452;41.572;23.732;2023-03-20T13:50:22;2.67;;;2.47;;
12776;SDS011;6452;41.572;23.732;2023-03-20T13:53:01;2.70;;;2.10;;
12776;SDS011;6452;41.572;23.732;2023-03-20T13:55:57;2.67;;;1.80;;
12776;SDS011;6452;41.572;23.732;2023-03-20T14:03:35;3.28;;;2.10;;
12776;SDS011;6452;41.572;23.732;2023-03-20T14:06:15;2.50;;;2.20;;
12776;SDS011;6452;41.572;23.732;2023-03-20T14:08:51;2.72;;;2.10;;
12776;SDS011;6452;41.572;23.732;2023-03-20T14:13:48;4.72;;;2.60;;
12776;SDS011;6452;41.572;23.732;2023-03-20T14:16:16;2.83;;;2.63;;
12776;SDS011;6452;41.572;23.732;2023-03-20T14:18:47;2.20;;;2.10;;
12776;SDS011;6452;41.572;23.732;2023-03-20T14:21:17;2.35;;;2.17;;
12776;SDS011;6452;41.572;23.732;2023-03-20T14:23:46;2.53;;;2.33;;
12776;SDS011;6452;41.572;23.732;2023-03-20T14:28:43;2.80;;;2.30;;
12776;SDS011;6452;41.572;23.732;2023-03-20T14:31:19;2.83;;;2.30;;
12776;SDS011;6452;41.572;23.732;2023-03-20T14:33:58;3.38;;;2.08;;
12776;SDS011;6452;41.572;23.732;2023-03-20T14:36:26;2.10;;;2.00;;
12776;SDS011;6452;41.572;23.732;2023-03-20T14:41:34;2.10;;;2.00;;
12776;SDS011;6452;41.572;23.732;2023-03-20T14:46:43;3.80;;;2.97;;
12776;SDS011;6452;41.572;23.732;2023-03-20T14:49:19;3.70;;;3.40;;
12776;SDS011;6452;41.572;23.732;2023-03-20T14:51:46;3.03;;;2.20;;
12776;SDS011;6452;41.572;23.732;2023-03-20T14:54:25;2.35;;;2.25;;
12776;SDS011;6452;41.572;23.732;2023-03-20T14:57:08;2.80;;;2.60;;
12776;SDS011;6452;41.572;23.732;2023-03-20T14:59:34;2.15;;;2.05;;
12776;SDS011;6452;41.572;23.732;2023-03-20T15:02:00;5.47;;;2.83;;
12776;SDS011;6452;41.572;23.732;2023-03-20T15:06:57;2.70;;;2.50;;
12776;SDS011;6452;41.572;23.732;2023-03-20T15:09:27;6.18;;;2.88;;
12776;SDS011;6452;41.572;23.732;2023-03-20T15:11:55;3.47;;;2.78;;
12776;SDS011;6452;41.572;23.732;2023-03-20T15:14:25;2.67;;;2.47;;
12776;SDS011;6452;41.572;23.732;2023-03-20T15:16:58;2.70;;;2.50;;
12776;SDS011;6452;41.572;23.732;2023-03-20T15:19:24;2.50;;;2.40;;
12776;SDS011;6452;41.572;23.732;2023-03-20T15:21:51;2.70;;;2.50;;
12776;SDS011;6452;41.572;23.732;2023-03-20T15:24:19;2.40;;;2.20;;
12776;SDS011;6452;41.572;23.732;2023-03-20T15:26:45;6.47;;;3.38;;
12776;SDS011;6452;41.572;23.732;2023-03-20T15:29:13;3.63;;;3.00;;
12776;SDS011;6452;41.572;23.732;2023-03-20T15:31:40;3.70;;;3.33;;
12776;SDS011;6452;41.572;23.732;2023-03-20T15:34:20;8.68;;;3.60;;
12776;SDS011;6452;41.572;23.732;2023-03-20T15:36:47;5.70;;;5.18;;
12776;SDS011;6452;41.572;23.732;2023-03-20T15:39:14;4.43;;;4.03;;
12776;SDS011;6452;41.572;23.732;2023-03-20T15:41:43;3.67;;;3.10;;
12776;SDS011;6452;41.572;23.732;2023-03-20T15:44:16;3.70;;;3.50;;
12776;SDS011;6452;41.572;23.732;2023-03-20T15:46:50;4.57;;;2.92;;
12776;SDS011;6452;41.572;23.732;2023-03-20T15:49:17;4.57;;;4.18;;
12776;SDS011;6452;41.572;23.732;2023-03-20T15:51:43;4.25;;;3.90;;
12776;SDS011;6452;41.572;23.732;2023-03-20T15:54:10;5.32;;;4.82;;
12776;SDS011;6452;41.572;23.732;2023-03-20T15:56:38;6.15;;;5.15;;
12776;SDS011;6452;41.572;23.732;2023-03-20T15:59:09;7.20;;;4.93;;
12776;SDS011;6452;41.572;23.732;2023-03-20T16:01:37;5.38;;;4.97;;
12776;SDS011;6452;41.572;23.732;2023-03-20T16:04:03;7.45;;;4.03;;
12776;SDS011;6452;41.572;23.732;2023-03-20T16:06:29;5.30;;;4.40;;
12776;SDS011;6452;41.572;23.732;2023-03-20T16:08:57;4.35;;;3.92;;
12776;SDS011;6452;41.572;23.732;2023-03-20T16:11:23;3.80;;;3.58;;
12776;SDS011;6452;41.572;23.732;2023-03-20T16:13:49;4.28;;;3.97;;
12776;SDS011;6452;41.572;23.732;2023-03-20T16:16:16;6.53;;;4.68;;
12776;SDS011;6452;41.572;23.732;2023-03-20T16:18:43;11.05;;;9.07;;
12776;SDS011;6452;41.572;23.732;2023-03-20T16:21:23;17.98;;;13.27;;
12776;SDS011;6452;41.572;23.732;2023-03-20T16:23:51;11.35;;;7.80;;
12776;SDS011;6452;41.572;23.732;2023-03-20T16:26:19;11.80;;;7.65;;
12776;SDS011;6452;41.572;23.732;2023-03-20T16:28:46;5.80;;;5.20;;
12776;SDS011;6452;41.572;23.732;2023-03-20T16:31:19;5.50;;;5.00;;
12776;SDS011;6452;41.572;23.732;2023-03-20T16:33:49;7.68;;;5.93;;
12776;SDS011;6452;41.572;23.732;2023-03-20T16:36:16;15.48;;;11.65;;
12776;SDS011;6452;41.572;23.732;2023-03-20T16:41:34;7.07;;;6.43;;
12776;SDS011;6452;41.572;23.732;2023-03-20T16:44:09;7.53;;;5.97;;
12776;SDS011;6452;41.572;23.732;2023-03-20T16:46:36;6.20;;;5.60;;
12776;SDS011;6452;41.572;23.732;2023-03-20T16:51:59;6.75;;;5.97;;
12776;SDS011;6452;41.572;23.732;2023-03-20T16:54:27;7.95;;;5.75;;
12776;SDS011;6452;41.572;23.732;2023-03-20T16:56:55;6.43;;;5.82;;
12776;SDS011;6452;41.572;23.732;2023-03-20T16:59:21;5.70;;;5.20;;
12776;SDS011;6452;41.572;23.732;2023-03-20T17:01:47;5.25;;;4.75;;
12776;SDS011;6452;41.572;23.732;2023-03-20T17:06:59;6.00;;;5.40;;
12776;SDS011;6452;41.572;23.732;2023-03-20T17:09:27;5.57;;;5.07;;
12776;SDS011;6452;41.572;23.732;2023-03-20T17:12:15;12.30;;;9.57;;
12776;SDS011;6452;41.572;23.732;2023-03-20T17:14:39;12.82;;;8.38;;